sensor_id;sensor_type;location;lat;lon;timestamp;temperature;humidity
34542;DHT22;20784;51.332;12.410;2022-09-09T00:01:28;16.50;99.90
34542;DHT22;20784;51.332;12.410;2022-09-09T00:10:09;16.30;99.90
34542;DHT22;20784;51.332;12.410;2022-09-09T00:12:55;16.30;99.90
34542;DHT22;20784;51.332;12.410;2022-09-09T00:18:16;16.20;99.90
34542;DHT22;20784;51.332;12.410;2022-09-09T00:21:00;16.30;99.90
34542;DHT22;20784;51.332;12.410;2022-09-09T00:23:30;16.20;99.90
34542;DHT22;20784;51.332;12.410;2022-09-09T00:26:09;16.30;99.90
34542;DHT22;20784;51.332;12.410;2022-09-09T00:31:35;16.10;99.90
34542;DHT22;20784;51.332;12.410;2022-09-09T00:34:20;16.20;99.90
34542;DHT22;20784;51.332;12.410;2022-09-09T00:36:49;16.20;99.90
34542;DHT22;20784;51.332;12.410;2022-09-09T00:40:05;16.20;99.90
34542;DHT22;20784;51.332;12.410;2022-09-09T00:47:52;16.10;99.90
34542;DHT22;20784;51.332;12.410;2022-09-09T00:55:54;16.10;99.90
34542;DHT22;20784;51.332;12.410;2022-09-09T00:58:22;16.20;99.90
34542;DHT22;20784;51.332;12.410;2022-09-09T01:03:34;16.10;99.90
34542;DHT22;20784;51.332;12.410;2022-09-09T01:11:28;16.10;99.90
34542;DHT22;20784;51.332;12.410;2022-09-09T01:14:16;16.10;99.90
34542;DHT22;20784;51.332;12.410;2022-09-09T01:16:45;16.10;99.90
34542;DHT22;20784;51.332;12.410;2022-09-09T01:19:21;16.10;99.90
34542;DHT22;20784;51.332;12.410;2022-09-09T01:28:07;16.10;99.90
34542;DHT22;20784;51.332;12.410;2022-09-09T01:30:38;16.10;99.90
34542;DHT22;20784;51.332;12.410;2022-09-09T01:33:04;16.10;99.90
34542;DHT22;20784;51.332;12.410;2022-09-09T01:38:17;16.10;99.90
34542;DHT22;20784;51.332;12.410;2022-09-09T01:40:43;16.10;99.90
34542;DHT22;20784;51.332;12.410;2022-09-09T01:43:09;16.10;99.90
34542;DHT22;20784;51.332;12.410;2022-09-09T01:45:35;16.10;99.90
34542;DHT22;20784;51.332;12.410;2022-09-09T01:48:02;16.10;99.90
34542;DHT22;20784;51.332;12.410;2022-09-09T01:50:28;16.00;99.90
34542;DHT22;20784;51.332;12.410;2022-09-09T01:52:57;16.00;99.90
34542;DHT22;20784;51.332;12.410;2022-09-09T01:55:29;16.00;99.90
34542;DHT22;20784;51.332;12.410;2022-09-09T01:58:22;15.90;99.90
34542;DHT22;20784;51.332;12.410;2022-09-09T02:03:56;15.90;99.90
34542;DHT22;20784;51.332;12.410;2022-09-09T02:08:49;15.80;99.90
34542;DHT22;20784;51.332;12.410;2022-09-09T02:11:17;15.90;99.90
34542;DHT22;20784;51.332;12.410;2022-09-09T02:13:45;15.90;99.90
34542;DHT22;20784;51.332;12.410;2022-09-09T02:19:14;15.80;99.90
34542;DHT22;20784;51.332;12.410;2022-09-09T02:21:44;15.80;99.90
34542;DHT22;20784;51.332;12.410;2022-09-09T02:24:12;15.80;99.90
34542;DHT22;20784;51.332;12.410;2022-09-09T02:26:41;15.70;99.90
34542;DHT22;20784;51.332;12.410;2022-09-09T02:29:29;15.70;99.90
34542;DHT22;20784;51.332;12.410;2022-09-09T02:31:59;15.70;99.90
34542;DHT22;20784;51.332;12.410;2022-09-09T02:34:29;15.70;99.90
34542;DHT22;20784;51.332;12.410;2022-09-09T02:36:57;15.70;99.90
34542;DHT22;20784;51.332;12.410;2022-09-09T02:39:22;15.70;99.90
34542;DHT22;20784;51.332;12.410;2022-09-09T02:41:48;15.70;99.90
34542;DHT22;20784;51.332;12.410;2022-09-09T02:44:16;15.60;99.90
34542;DHT22;20784;51.332;12.410;2022-09-09T02:52:06;15.60;99.90
34542;DHT22;20784;51.332;12.410;2022-09-09T02:54:34;15.60;99.90
34542;DHT22;20784;51.332;12.410;2022-09-09T02:57:21;15.50;99.90
34542;DHT22;20784;51.332;12.410;2022-09-09T02:59:47;15.50;99.90
34542;DHT22;20784;51.332;12.410;2022-09-09T03:02:14;15.60;99.90
34542;DHT22;20784;51.332;12.410;2022-09-09T03:04:40;15.50;99.90
34542;DHT22;20784;51.332;12.410;2022-09-09T03:07:08;15.50;99.90
34542;DHT22;20784;51.332;12.410;2022-09-09T03:09:34;15.50;99.90
34542;DHT22;20784;51.332;12.410;2022-09-09T03:12:00;15.40;99.90
34542;DHT22;20784;51.332;12.410;2022-09-09T03:14:26;15.40;99.90
34542;DHT22;20784;51.332;12.410;2022-09-09T03:16:52;15.50;99.90
34542;DHT22;20784;51.332;12.410;2022-09-09T03:19:19;15.40;99.90
34542;DHT22;20784;51.332;12.410;2022-09-09T03:21:46;15.40;99.90
34542;DHT22;20784;51.332;12.410;2022-09-09T03:24:12;15.30;99.90
34542;DHT22;20784;51.332;12.410;2022-09-09T03:26:38;15.40;99.90
34542;DHT22;20784;51.332;12.410;2022-09-09T03:29:05;15.30;99.90
34542;DHT22;20784;51.332;12.410;2022-09-09T03:31:34;15.30;99.90
34542;DHT22;20784;51.332;12.410;2022-09-09T03:34:01;15.30;99.90
34542;DHT22;20784;51.332;12.410;2022-09-09T03:36:27;15.40;99.90
34542;DHT22;20784;51.332;12.410;2022-09-09T03:38:54;15.40;99.90
34542;DHT22;20784;51.332;12.410;2022-09-09T03:41:23;15.40;99.90
34542;DHT22;20784;51.332;12.410;2022-09-09T03:43:53;15.40;99.90
34542;DHT22;20784;51.332;12.410;2022-09-09T03:46:20;15.40;99.90
34542;DHT22;20784;51.332;12.410;2022-09-09T03:48:46;15.40;99.90
34542;DHT22;20784;51.332;12.410;2022-09-09T03:51:11;15.40;99.90
34542;DHT22;20784;51.332;12.410;2022-09-09T03:53:37;15.40;99.90
34542;DHT22;20784;51.332;12.410;2022-09-09T03:56:04;15.40;99.90
34542;DHT22;20784;51.332;12.410;2022-09-09T03:58:33;15.40;99.90
34542;DHT22;20784;51.332;12.410;2022-09-09T04:01:02;15.40;99.90
34542;DHT22;20784;51.332;12.410;2022-09-09T04:03:28;15.40;99.90
34542;DHT22;20784;51.332;12.410;2022-09-09T04:05:55;15.40;99.90
34542;DHT22;20784;51.332;12.410;2022-09-09T04:08:22;15.40;99.90
34542;DHT22;20784;51.332;12.410;2022-09-09T04:10:50;15.30;99.90
34542;DHT22;20784;51.332;12.410;2022-09-09T04:13:17;15.30;99.90
34542;DHT22;20784;51.332;12.410;2022-09-09T04:16:03;15.20;99.90
34542;DHT22;20784;51.332;12.410;2022-09-09T04:18:30;15.30;99.90
34542;DHT22;20784;51.332;12.410;2022-09-09T04:20:56;15.20;99.90
34542;DHT22;20784;51.332;12.410;2022-09-09T04:23:23;15.20;99.90
34542;DHT22;20784;51.332;12.410;2022-09-09T04:25:51;15.30;99.90
34542;DHT22;20784;51.332;12.410;2022-09-09T04:28:20;15.30;99.90
34542;DHT22;20784;51.332;12.410;2022-09-09T04:30:46;15.30;99.90
34542;DHT22;20784;51.332;12.410;2022-09-09T04:33:12;15.30;99.90
34542;DHT22;20784;51.332;12.410;2022-09-09T04:35:39;15.30;99.90
34542;DHT22;20784;51.332;12.410;2022-09-09T04:38:05;15.30;99.90
34542;DHT22;20784;51.332;12.410;2022-09-09T04:40:34;15.20;99.90
34542;DHT22;20784;51.332;12.410;2022-09-09T04:43:01;15.20;99.90
34542;DHT22;20784;51.332;12.410;2022-09-09T04:45:28;15.20;99.90
34542;DHT22;20784;51.332;12.410;2022-09-09T04:47:54;15.20;99.90
34542;DHT22;20784;51.332;12.410;2022-09-09T04:50:20;15.30;99.90
34542;DHT22;20784;51.332;12.410;2022-09-09T04:52:46;15.30;99.90
34542;DHT22;20784;51.332;12.410;2022-09-09T04:55:11;15.30;99.90
34542;DHT22;20784;51.332;12.410;2022-09-09T04:57:39;15.40;99.90
34542;DHT22;20784;51.332;12.410;2022-09-09T05:00:05;15.30;99.90
34542;DHT22;20784;51.332;12.410;2022-09-09T05:02:31;15.30;99.90
34542;DHT22;20784;51.332;12.410;2022-09-09T05:05:00;15.20;99.90
34542;DHT22;20784;51.332;12.410;2022-09-09T05:07:28;15.30;99.90
34542;DHT22;20784;51.332;12.410;2022-09-09T05:09:54;15.30;99.90
34542;DHT22;20784;51.332;12.410;2022-09-09T05:12:19;15.30;99.90
34542;DHT22;20784;51.332;12.410;2022-09-09T05:14:45;15.40;99.90
34542;DHT22;20784;51.332;12.410;2022-09-09T05:17:11;15.40;99.90
34542;DHT22;20784;51.332;12.410;2022-09-09T05:19:36;15.50;99.90
34542;DHT22;20784;51.332;12.410;2022-09-09T05:22:02;15.50;99.90
34542;DHT22;20784;51.332;12.410;2022-09-09T05:24:28;15.60;99.90
34542;DHT22;20784;51.332;12.410;2022-09-09T05:26:54;15.60;99.90
34542;DHT22;20784;51.332;12.410;2022-09-09T05:29:25;15.70;99.90
34542;DHT22;20784;51.332;12.410;2022-09-09T05:31:51;15.70;99.90
34542;DHT22;20784;51.332;12.410;2022-09-09T05:34:17;15.80;99.90
34542;DHT22;20784;51.332;12.410;2022-09-09T05:36:46;15.80;99.90
34542;DHT22;20784;51.332;12.410;2022-09-09T05:39:15;15.80;99.90
34542;DHT22;20784;51.332;12.410;2022-09-09T05:41:56;15.90;99.90
34542;DHT22;20784;51.332;12.410;2022-09-09T05:44:22;15.90;99.90
34542;DHT22;20784;51.332;12.410;2022-09-09T05:46:50;15.90;99.90
34542;DHT22;20784;51.332;12.410;2022-09-09T05:49:15;15.90;99.90
34542;DHT22;20784;51.332;12.410;2022-09-09T05:51:41;16.00;99.90
34542;DHT22;20784;51.332;12.410;2022-09-09T05:54:08;16.00;99.90
34542;DHT22;20784;51.332;12.410;2022-09-09T05:56:34;16.00;99.90
34542;DHT22;20784;51.332;12.410;2022-09-09T05:59:00;16.10;99.90
34542;DHT22;20784;51.332;12.410;2022-09-09T06:01:29;16.10;99.90
34542;DHT22;20784;51.332;12.410;2022-09-09T06:03:55;16.10;99.90
34542;DHT22;20784;51.332;12.410;2022-09-09T06:06:26;16.20;99.90
34542;DHT22;20784;51.332;12.410;2022-09-09T06:08:56;16.20;99.90
34542;DHT22;20784;51.332;12.410;2022-09-09T06:11:24;16.20;99.90
34542;DHT22;20784;51.332;12.410;2022-09-09T06:13:50;16.30;99.90
34542;DHT22;20784;51.332;12.410;2022-09-09T06:16:21;16.30;99.90
34542;DHT22;20784;51.332;12.410;2022-09-09T06:18:51;16.40;99.90
34542;DHT22;20784;51.332;12.410;2022-09-09T06:21:23;16.50;99.90
34542;DHT22;20784;51.332;12.410;2022-09-09T06:23:49;16.40;99.90
34542;DHT22;20784;51.332;12.410;2022-09-09T06:26:42;16.50;99.90
34542;DHT22;20784;51.332;12.410;2022-09-09T06:29:07;16.50;99.90
34542;DHT22;20784;51.332;12.410;2022-09-09T06:31:34;16.50;99.90
34542;DHT22;20784;51.332;12.410;2022-09-09T06:34:00;16.50;99.90
34542;DHT22;20784;51.332;12.410;2022-09-09T06:36:33;16.60;99.90
34542;DHT22;20784;51.332;12.410;2022-09-09T06:39:05;16.70;99.90
34542;DHT22;20784;51.332;12.410;2022-09-09T06:41:32;16.70;99.90
34542;DHT22;20784;51.332;12.410;2022-09-09T06:44:01;16.70;99.90
34542;DHT22;20784;51.332;12.410;2022-09-09T06:46:31;16.80;99.90
34542;DHT22;20784;51.332;12.410;2022-09-09T06:48:58;16.80;99.90
34542;DHT22;20784;51.332;12.410;2022-09-09T06:51:33;16.80;99.90
34542;DHT22;20784;51.332;12.410;2022-09-09T06:54:03;16.90;99.90
34542;DHT22;20784;51.332;12.410;2022-09-09T06:56:34;16.90;99.90
34542;DHT22;20784;51.332;12.410;2022-09-09T06:59:02;17.00;99.90
34542;DHT22;20784;51.332;12.410;2022-09-09T07:01:31;17.00;99.90
34542;DHT22;20784;51.332;12.410;2022-09-09T07:03:58;17.20;99.90
34542;DHT22;20784;51.332;12.410;2022-09-09T07:06:38;17.20;99.90
34542;DHT22;20784;51.332;12.410;2022-09-09T07:09:09;17.40;99.90
34542;DHT22;20784;51.332;12.410;2022-09-09T07:11:40;17.50;99.90
34542;DHT22;20784;51.332;12.410;2022-09-09T07:14:07;17.50;99.90
34542;DHT22;20784;51.332;12.410;2022-09-09T07:16:33;17.60;99.90
34542;DHT22;20784;51.332;12.410;2022-09-09T07:19:02;17.50;99.90
34542;DHT22;20784;51.332;12.410;2022-09-09T07:21:29;17.60;99.90
34542;DHT22;20784;51.332;12.410;2022-09-09T07:23:56;17.60;99.90
34542;DHT22;20784;51.332;12.410;2022-09-09T07:26:25;17.80;99.90
34542;DHT22;20784;51.332;12.410;2022-09-09T07:28:51;18.10;99.90
34542;DHT22;20784;51.332;12.410;2022-09-09T07:31:18;18.40;99.90
34542;DHT22;20784;51.332;12.410;2022-09-09T07:33:46;18.60;99.90
34542;DHT22;20784;51.332;12.410;2022-09-09T07:36:15;18.80;99.90
34542;DHT22;20784;51.332;12.410;2022-09-09T07:38:44;19.10;99.90
34542;DHT22;20784;51.332;12.410;2022-09-09T07:41:16;19.30;99.90
34542;DHT22;20784;51.332;12.410;2022-09-09T07:43:44;19.50;99.90
34542;DHT22;20784;51.332;12.410;2022-09-09T07:46:11;19.90;99.90
34542;DHT22;20784;51.332;12.410;2022-09-09T07:48:38;20.00;99.90
34542;DHT22;20784;51.332;12.410;2022-09-09T07:51:15;20.10;99.90
34542;DHT22;20784;51.332;12.410;2022-09-09T07:53:46;19.90;99.90
34542;DHT22;20784;51.332;12.410;2022-09-09T07:56:18;20.00;99.90
34542;DHT22;20784;51.332;12.410;2022-09-09T07:58:51;20.20;99.90
34542;DHT22;20784;51.332;12.410;2022-09-09T08:01:20;20.30;99.90
34542;DHT22;20784;51.332;12.410;2022-09-09T08:03:47;20.50;99.90
34542;DHT22;20784;51.332;12.410;2022-09-09T08:06:17;20.60;99.90
34542;DHT22;20784;51.332;12.410;2022-09-09T08:08:50;21.00;99.90
34542;DHT22;20784;51.332;12.410;2022-09-09T08:11:21;21.40;99.90
34542;DHT22;20784;51.332;12.410;2022-09-09T08:13:49;21.50;99.90
34542;DHT22;20784;51.332;12.410;2022-09-09T08:16:19;21.50;99.90
34542;DHT22;20784;51.332;12.410;2022-09-09T08:18:49;21.60;99.90
34542;DHT22;20784;51.332;12.410;2022-09-09T08:21:21;21.90;99.90
34542;DHT22;20784;51.332;12.410;2022-09-09T08:23:51;22.00;99.90
34542;DHT22;20784;51.332;12.410;2022-09-09T08:26:22;22.00;99.90
34542;DHT22;20784;51.332;12.410;2022-09-09T08:28:52;21.80;99.90
34542;DHT22;20784;51.332;12.410;2022-09-09T08:31:21;21.70;99.90
34542;DHT22;20784;51.332;12.410;2022-09-09T08:33:47;21.70;99.90
34542;DHT22;20784;51.332;12.410;2022-09-09T08:36:20;21.80;99.90
34542;DHT22;20784;51.332;12.410;2022-09-09T08:38:48;22.00;99.90
34542;DHT22;20784;51.332;12.410;2022-09-09T08:44:26;22.50;99.90
34542;DHT22;20784;51.332;12.410;2022-09-09T08:47:32;22.70;99.90
34542;DHT22;20784;51.332;12.410;2022-09-09T08:50:19;23.10;99.90
34542;DHT22;20784;51.332;12.410;2022-09-09T08:55:48;23.80;99.90
34542;DHT22;20784;51.332;12.410;2022-09-09T09:01:05;24.10;99.90
34542;DHT22;20784;51.332;12.410;2022-09-09T09:04:00;24.30;99.90
34542;DHT22;20784;51.332;12.410;2022-09-09T09:11:56;24.50;99.90
34542;DHT22;20784;51.332;12.410;2022-09-09T09:14:33;24.60;99.90
34542;DHT22;20784;51.332;12.410;2022-09-09T09:19:31;25.50;99.90
34542;DHT22;20784;51.332;12.410;2022-09-09T09:22:04;25.80;99.90
34542;DHT22;20784;51.332;12.410;2022-09-09T09:24:35;25.60;99.90
34542;DHT22;20784;51.332;12.410;2022-09-09T09:27:13;25.90;99.90
34542;DHT22;20784;51.332;12.410;2022-09-09T09:29:40;25.70;99.90
34542;DHT22;20784;51.332;12.410;2022-09-09T09:32:11;26.40;99.90
34542;DHT22;20784;51.332;12.410;2022-09-09T09:34:38;27.10;99.90
34542;DHT22;20784;51.332;12.410;2022-09-09T09:37:29;26.90;99.90
34542;DHT22;20784;51.332;12.410;2022-09-09T09:40:08;27.40;99.90
34542;DHT22;20784;51.332;12.410;2022-09-09T09:42:34;27.10;99.90
34542;DHT22;20784;51.332;12.410;2022-09-09T09:45:34;27.10;99.90
34542;DHT22;20784;51.332;12.410;2022-09-09T09:48:06;27.00;99.90
34542;DHT22;20784;51.332;12.410;2022-09-09T09:50:32;26.80;99.90
34542;DHT22;20784;51.332;12.410;2022-09-09T09:53:03;26.60;99.90
34542;DHT22;20784;51.332;12.410;2022-09-09T09:55:34;26.70;99.90
34542;DHT22;20784;51.332;12.410;2022-09-09T09:58:02;26.90;99.90
34542;DHT22;20784;51.332;12.410;2022-09-09T10:00:28;27.30;99.90
34542;DHT22;20784;51.332;12.410;2022-09-09T10:02:54;26.90;99.90
34542;DHT22;20784;51.332;12.410;2022-09-09T10:05:23;26.80;99.90
34542;DHT22;20784;51.332;12.410;2022-09-09T10:08:11;26.60;99.90
34542;DHT22;20784;51.332;12.410;2022-09-09T10:11:12;26.40;99.90
34542;DHT22;20784;51.332;12.410;2022-09-09T10:14:20;26.10;99.90
34542;DHT22;20784;51.332;12.410;2022-09-09T10:16:59;25.90;99.90
34542;DHT22;20784;51.332;12.410;2022-09-09T10:19:36;25.90;99.90
34542;DHT22;20784;51.332;12.410;2022-09-09T10:22:14;26.10;99.90
34542;DHT22;20784;51.332;12.410;2022-09-09T10:36:10;26.50;99.90
34542;DHT22;20784;51.332;12.410;2022-09-09T10:38:30;26.50;99.90
34542;DHT22;20784;51.332;12.410;2022-09-09T10:41:06;26.60;99.90
34542;DHT22;20784;51.332;12.410;2022-09-09T10:55:20;25.90;99.90
34542;DHT22;20784;51.332;12.410;2022-09-09T10:57:48;25.80;99.90
34542;DHT22;20784;51.332;12.410;2022-09-09T11:00:36;25.80;99.90
34542;DHT22;20784;51.332;12.410;2022-09-09T11:03:09;25.90;99.90
34542;DHT22;20784;51.332;12.410;2022-09-09T11:05:47;25.90;99.90
34542;DHT22;20784;51.332;12.410;2022-09-09T11:08:36;26.00;99.90
34542;DHT22;20784;51.332;12.410;2022-09-09T11:11:25;25.90;99.90
34542;DHT22;20784;51.332;12.410;2022-09-09T11:16:46;26.50;99.90
34542;DHT22;20784;51.332;12.410;2022-09-09T11:19:35;26.90;99.90
34542;DHT22;20784;51.332;12.410;2022-09-09T11:22:32;27.40;99.90
34542;DHT22;20784;51.332;12.410;2022-09-09T11:33:07;26.00;99.90
34542;DHT22;20784;51.332;12.410;2022-09-09T11:35:46;25.20;99.90
34542;DHT22;20784;51.332;12.410;2022-09-09T11:40:39;25.30;99.90
34542;DHT22;20784;51.332;12.410;2022-09-09T11:43:13;26.10;99.90
34542;DHT22;20784;51.332;12.410;2022-09-09T11:45:49;26.50;99.90
34542;DHT22;20784;51.332;12.410;2022-09-09T11:48:42;27.10;99.90
34542;DHT22;20784;51.332;12.410;2022-09-09T11:51:29;27.60;99.90
34542;DHT22;20784;51.332;12.410;2022-09-09T11:56:46;27.20;99.90
34542;DHT22;20784;51.332;12.410;2022-09-09T11:59:24;26.60;99.90
34542;DHT22;20784;51.332;12.410;2022-09-09T12:02:27;26.00;99.90
34542;DHT22;20784;51.332;12.410;2022-09-09T12:05:06;25.90;99.90
34542;DHT22;20784;51.332;12.410;2022-09-09T12:07:40;26.00;99.90
34542;DHT22;20784;51.332;12.410;2022-09-09T12:10:27;26.30;99.90
34542;DHT22;20784;51.332;12.410;2022-09-09T12:12:54;26.40;99.90
34542;DHT22;20784;51.332;12.410;2022-09-09T12:15:26;26.90;99.90
34542;DHT22;20784;51.332;12.410;2022-09-09T12:17:56;27.00;99.90
34542;DHT22;20784;51.332;12.410;2022-09-09T12:20:36;26.80;99.90
34542;DHT22;20784;51.332;12.410;2022-09-09T12:26:18;26.10;99.90
34542;DHT22;20784;51.332;12.410;2022-09-09T12:31:51;24.90;99.90
34542;DHT22;20784;51.332;12.410;2022-09-09T12:34:34;24.90;99.90
34542;DHT22;20784;51.332;12.410;2022-09-09T12:37:33;24.80;99.90
34542;DHT22;20784;51.332;12.410;2022-09-09T12:40:06;24.60;99.90
34542;DHT22;20784;51.332;12.410;2022-09-09T12:42:32;25.10;99.90
34542;DHT22;20784;51.332;12.410;2022-09-09T12:45:14;25.60;99.90
34542;DHT22;20784;51.332;12.410;2022-09-09T12:50:35;26.40;99.90
34542;DHT22;20784;51.332;12.410;2022-09-09T12:53:24;26.60;99.90
34542;DHT22;20784;51.332;12.410;2022-09-09T12:56:00;26.80;99.90
34542;DHT22;20784;51.332;12.410;2022-09-09T12:58:28;26.70;99.90
34542;DHT22;20784;51.332;12.410;2022-09-09T13:00:59;26.90;99.90
34542;DHT22;20784;51.332;12.410;2022-09-09T13:03:26;27.10;99.90
34542;DHT22;20784;51.332;12.410;2022-09-09T13:05:53;27.30;99.90
34542;DHT22;20784;51.332;12.410;2022-09-09T13:08:22;27.60;99.90
34542;DHT22;20784;51.332;12.410;2022-09-09T13:10:53;28.00;99.90
34542;DHT22;20784;51.332;12.410;2022-09-09T13:13:28;27.90;99.90
34542;DHT22;20784;51.332;12.410;2022-09-09T13:16:00;27.20;99.90
34542;DHT22;20784;51.332;12.410;2022-09-09T13:18:40;26.80;99.90
34542;DHT22;20784;51.332;12.410;2022-09-09T13:21:06;26.60;99.90
34542;DHT22;20784;51.332;12.410;2022-09-09T13:23:34;26.60;99.90
34542;DHT22;20784;51.332;12.410;2022-09-09T13:26:03;26.40;99.90
34542;DHT22;20784;51.332;12.410;2022-09-09T13:28:30;26.30;99.90
34542;DHT22;20784;51.332;12.410;2022-09-09T13:31:01;26.10;99.90
34542;DHT22;20784;51.332;12.410;2022-09-09T13:33:33;25.90;99.90
34542;DHT22;20784;51.332;12.410;2022-09-09T13:35:59;25.80;99.90
34542;DHT22;20784;51.332;12.410;2022-09-09T13:38:28;25.60;99.90
34542;DHT22;20784;51.332;12.410;2022-09-09T13:41:03;25.40;99.90
34542;DHT22;20784;51.332;12.410;2022-09-09T13:43:34;25.10;99.90
34542;DHT22;20784;51.332;12.410;2022-09-09T13:46:05;25.10;99.90
34542;DHT22;20784;51.332;12.410;2022-09-09T13:51:38;24.80;99.90
34542;DHT22;20784;51.332;12.410;2022-09-09T13:54:05;24.70;99.90
34542;DHT22;20784;51.332;12.410;2022-09-09T13:56:33;24.60;99.90
34542;DHT22;20784;51.332;12.410;2022-09-09T13:58:59;24.50;99.90
34542;DHT22;20784;51.332;12.410;2022-09-09T14:01:31;24.40;99.90
34542;DHT22;20784;51.332;12.410;2022-09-09T14:03:56;24.10;99.90
34542;DHT22;20784;51.332;12.410;2022-09-09T14:06:22;22.90;99.90
34542;DHT22;20784;51.332;12.410;2022-09-09T14:08:51;22.00;99.90
34542;DHT22;20784;51.332;12.410;2022-09-09T14:11:19;21.00;99.90
34542;DHT22;20784;51.332;12.410;2022-09-09T14:13:48;20.50;99.90
34542;DHT22;20784;51.332;12.410;2022-09-09T14:18:55;20.10;99.90
34542;DHT22;20784;51.332;12.410;2022-09-09T14:21:27;20.20;99.90
34542;DHT22;20784;51.332;12.410;2022-09-09T14:23:53;20.20;99.90
34542;DHT22;20784;51.332;12.410;2022-09-09T14:26:21;20.20;99.90
34542;DHT22;20784;51.332;12.410;2022-09-09T14:28:50;20.20;99.90
34542;DHT22;20784;51.332;12.410;2022-09-09T14:31:24;20.30;99.90
34542;DHT22;20784;51.332;12.410;2022-09-09T14:33:53;20.50;99.90
34542;DHT22;20784;51.332;12.410;2022-09-09T14:36:26;20.50;99.90
34542;DHT22;20784;51.332;12.410;2022-09-09T14:38:55;20.70;99.90
34542;DHT22;20784;51.332;12.410;2022-09-09T14:41:20;20.70;99.90
34542;DHT22;20784;51.332;12.410;2022-09-09T14:43:51;20.70;99.90
34542;DHT22;20784;51.332;12.410;2022-09-09T14:46:19;20.70;99.90
34542;DHT22;20784;51.332;12.410;2022-09-09T14:48:45;20.80;99.90
34542;DHT22;20784;51.332;12.410;2022-09-09T14:51:26;20.90;99.90
34542;DHT22;20784;51.332;12.410;2022-09-09T14:53:57;21.00;99.90
34542;DHT22;20784;51.332;12.410;2022-09-09T14:56:30;21.10;99.90
34542;DHT22;20784;51.332;12.410;2022-09-09T14:58:59;21.20;99.90
34542;DHT22;20784;51.332;12.410;2022-09-09T15:01:29;21.30;99.90
34542;DHT22;20784;51.332;12.410;2022-09-09T15:04:00;21.40;99.90
34542;DHT22;20784;51.332;12.410;2022-09-09T15:06:37;21.50;99.90
34542;DHT22;20784;51.332;12.410;2022-09-09T15:09:08;21.70;99.90
34542;DHT22;20784;51.332;12.410;2022-09-09T15:11:41;22.10;99.90
34542;DHT22;20784;51.332;12.410;2022-09-09T15:14:12;22.20;99.90
34542;DHT22;20784;51.332;12.410;2022-09-09T15:16:41;22.30;99.90
34542;DHT22;20784;51.332;12.410;2022-09-09T15:19:34;22.40;99.90
34542;DHT22;20784;51.332;12.410;2022-09-09T15:22:08;22.40;99.90
34542;DHT22;20784;51.332;12.410;2022-09-09T15:24:34;22.50;99.90
34542;DHT22;20784;51.332;12.410;2022-09-09T15:29:44;22.50;99.90
34542;DHT22;20784;51.332;12.410;2022-09-09T15:32:15;22.50;99.90
34542;DHT22;20784;51.332;12.410;2022-09-09T15:34:43;22.40;99.90
34542;DHT22;20784;51.332;12.410;2022-09-09T15:37:22;22.40;99.90
34542;DHT22;20784;51.332;12.410;2022-09-09T15:39:57;22.30;99.90
34542;DHT22;20784;51.332;12.410;2022-09-09T15:42:44;22.30;99.90
34542;DHT22;20784;51.332;12.410;2022-09-09T15:45:10;22.40;99.90
34542;DHT22;20784;51.332;12.410;2022-09-09T15:47:39;22.30;99.90
34542;DHT22;20784;51.332;12.410;2022-09-09T15:50:07;22.40;99.90
34542;DHT22;20784;51.332;12.410;2022-09-09T15:52:35;22.50;99.90
34542;DHT22;20784;51.332;12.410;2022-09-09T15:55:01;22.50;99.90
34542;DHT22;20784;51.332;12.410;2022-09-09T15:57:26;22.60;99.90
34542;DHT22;20784;51.332;12.410;2022-09-09T15:59:52;22.60;99.90
34542;DHT22;20784;51.332;12.410;2022-09-09T16:02:23;22.60;99.90
34542;DHT22;20784;51.332;12.410;2022-09-09T16:04:51;22.50;99.90
34542;DHT22;20784;51.332;12.410;2022-09-09T16:07:17;22.50;99.90
34542;DHT22;20784;51.332;12.410;2022-09-09T16:09:43;22.50;99.90
34542;DHT22;20784;51.332;12.410;2022-09-09T16:12:09;22.50;99.90
34542;DHT22;20784;51.332;12.410;2022-09-09T16:14:37;22.50;99.90
34542;DHT22;20784;51.332;12.410;2022-09-09T16:17:06;22.60;99.90
34542;DHT22;20784;51.332;12.410;2022-09-09T16:19:36;22.60;99.90
34542;DHT22;20784;51.332;12.410;2022-09-09T16:22:05;22.50;99.90
34542;DHT22;20784;51.332;12.410;2022-09-09T16:24:34;22.50;99.90
34542;DHT22;20784;51.332;12.410;2022-09-09T16:27:04;22.50;99.90
34542;DHT22;20784;51.332;12.410;2022-09-09T16:29:33;22.40;99.90
34542;DHT22;20784;51.332;12.410;2022-09-09T16:31:59;22.40;99.90
34542;DHT22;20784;51.332;12.410;2022-09-09T16:34:27;22.50;99.90
34542;DHT22;20784;51.332;12.410;2022-09-09T16:37:11;22.50;99.90
34542;DHT22;20784;51.332;12.410;2022-09-09T16:39:39;22.40;99.90
34542;DHT22;20784;51.332;12.410;2022-09-09T16:42:05;22.50;99.90
34542;DHT22;20784;51.332;12.410;2022-09-09T16:44:33;22.40;99.90
34542;DHT22;20784;51.332;12.410;2022-09-09T16:46:58;22.30;99.90
34542;DHT22;20784;51.332;12.410;2022-09-09T16:49:25;22.20;99.90
34542;DHT22;20784;51.332;12.410;2022-09-09T16:51:58;22.20;99.90
34542;DHT22;20784;51.332;12.410;2022-09-09T16:54:24;22.30;99.90
34542;DHT22;20784;51.332;12.410;2022-09-09T16:56:50;22.10;99.90
34542;DHT22;20784;51.332;12.410;2022-09-09T16:59:18;22.00;99.90
34542;DHT22;20784;51.332;12.410;2022-09-09T17:01:45;22.00;99.90
34542;DHT22;20784;51.332;12.410;2022-09-09T17:04:18;21.80;99.90
34542;DHT22;20784;51.332;12.410;2022-09-09T17:06:50;21.70;99.90
34542;DHT22;20784;51.332;12.410;2022-09-09T17:09:16;21.60;99.90
34542;DHT22;20784;51.332;12.410;2022-09-09T17:11:42;21.50;99.90
34542;DHT22;20784;51.332;12.410;2022-09-09T17:14:10;21.50;99.90
34542;DHT22;20784;51.332;12.410;2022-09-09T17:16:36;21.40;99.90
34542;DHT22;20784;51.332;12.410;2022-09-09T17:19:05;21.40;99.90
34542;DHT22;20784;51.332;12.410;2022-09-09T17:21:32;21.40;99.90
34542;DHT22;20784;51.332;12.410;2022-09-09T17:23:58;21.30;99.90
34542;DHT22;20784;51.332;12.410;2022-09-09T17:26:27;21.20;99.90
34542;DHT22;20784;51.332;12.410;2022-09-09T17:28:53;21.20;99.90
34542;DHT22;20784;51.332;12.410;2022-09-09T17:31:21;21.20;99.90
34542;DHT22;20784;51.332;12.410;2022-09-09T17:34:03;21.10;99.90
34542;DHT22;20784;51.332;12.410;2022-09-09T17:36:32;21.00;99.90
34542;DHT22;20784;51.332;12.410;2022-09-09T17:38:59;21.00;99.90
34542;DHT22;20784;51.332;12.410;2022-09-09T17:41:31;21.00;99.90
34542;DHT22;20784;51.332;12.410;2022-09-09T17:43:59;21.00;99.90
34542;DHT22;20784;51.332;12.410;2022-09-09T17:46:28;20.90;99.90